sensor_id;sensor_type;location;lat;lon;timestamp;temperature;humidity
7842;DHT22;3966;51.052;13.820;2023-08-06T00:01:29;16.20;99.90
7842;DHT22;3966;51.052;13.820;2023-08-06T00:03:54;16.30;99.90
7842;DHT22;3966;51.052;13.820;2023-08-06T00:06:20;16.30;99.90
7842;DHT22;3966;51.052;13.820;2023-08-06T00:08:46;16.30;99.90
7842;DHT22;3966;51.052;13.820;2023-08-06T00:11:12;16.30;99.90
7842;DHT22;3966;51.052;13.820;2023-08-06T00:13:38;16.30;99.90
7842;DHT22;3966;51.052;13.820;2023-08-06T00:16:11;16.40;99.90
7842;DHT22;3966;51.052;13.820;2023-08-06T00:18:38;16.40;99.90
7842;DHT22;3966;51.052;13.820;2023-08-06T00:21:04;16.30;99.90
7842;DHT22;3966;51.052;13.820;2023-08-06T00:23:30;16.30;99.90
7842;DHT22;3966;51.052;13.820;2023-08-06T00:25:55;16.40;99.90
7842;DHT22;3966;51.052;13.820;2023-08-06T00:28:21;16.40;99.90
7842;DHT22;3966;51.052;13.820;2023-08-06T00:30:51;16.40;99.90
7842;DHT22;3966;51.052;13.820;2023-08-06T00:33:17;16.40;99.90
7842;DHT22;3966;51.052;13.820;2023-08-06T00:35:43;16.40;99.90
7842;DHT22;3966;51.052;13.820;2023-08-06T00:38:08;16.40;99.90
7842;DHT22;3966;51.052;13.820;2023-08-06T00:40:34;16.40;99.90
7842;DHT22;3966;51.052;13.820;2023-08-06T00:43:00;16.40;99.90
7842;DHT22;3966;51.052;13.820;2023-08-06T00:45:26;16.30;99.90
7842;DHT22;3966;51.052;13.820;2023-08-06T00:47:53;16.30;99.90
7842;DHT22;3966;51.052;13.820;2023-08-06T00:50:18;16.20;99.90
7842;DHT22;3966;51.052;13.820;2023-08-06T00:52:46;16.20;99.90
7842;DHT22;3966;51.052;13.820;2023-08-06T00:55:12;16.30;99.90
7842;DHT22;3966;51.052;13.820;2023-08-06T00:57:38;16.30;99.90
7842;DHT22;3966;51.052;13.820;2023-08-06T01:00:04;16.30;99.90
7842;DHT22;3966;51.052;13.820;2023-08-06T01:02:30;16.30;99.90
7842;DHT22;3966;51.052;13.820;2023-08-06T01:04:55;16.30;99.90
7842;DHT22;3966;51.052;13.820;2023-08-06T01:15:55;16.20;99.90
7842;DHT22;3966;51.052;13.820;2023-08-06T01:18:23;16.20;99.90
7842;DHT22;3966;51.052;13.820;2023-08-06T01:20:49;16.10;99.90
7842;DHT22;3966;51.052;13.820;2023-08-06T01:23:18;16.10;99.90
7842;DHT22;3966;51.052;13.820;2023-08-06T01:26:00;16.10;99.90
7842;DHT22;3966;51.052;13.820;2023-08-06T01:28:52;16.10;99.90
7842;DHT22;3966;51.052;13.820;2023-08-06T01:31:29;16.10;99.90
7842;DHT22;3966;51.052;13.820;2023-08-06T01:33:56;16.10;99.90
7842;DHT22;3966;51.052;13.820;2023-08-06T01:36:24;16.10;99.90
7842;DHT22;3966;51.052;13.820;2023-08-06T01:38:52;16.00;99.90
7842;DHT22;3966;51.052;13.820;2023-08-06T01:41:18;16.00;99.90
7842;DHT22;3966;51.052;13.820;2023-08-06T01:43:44;15.90;99.90
7842;DHT22;3966;51.052;13.820;2023-08-06T01:46:09;15.90;99.90
7842;DHT22;3966;51.052;13.820;2023-08-06T01:48:35;16.00;99.90
7842;DHT22;3966;51.052;13.820;2023-08-06T01:51:01;16.00;99.90
7842;DHT22;3966;51.052;13.820;2023-08-06T01:53:27;16.00;99.90
7842;DHT22;3966;51.052;13.820;2023-08-06T01:55:52;16.00;99.90
7842;DHT22;3966;51.052;13.820;2023-08-06T01:58:18;16.10;99.90
7842;DHT22;3966;51.052;13.820;2023-08-06T02:00:43;16.10;99.90
7842;DHT22;3966;51.052;13.820;2023-08-06T02:03:09;16.10;99.90
7842;DHT22;3966;51.052;13.820;2023-08-06T02:05:35;16.10;99.90
7842;DHT22;3966;51.052;13.820;2023-08-06T02:08:00;16.10;99.90
7842;DHT22;3966;51.052;13.820;2023-08-06T02:10:26;16.10;99.90
7842;DHT22;3966;51.052;13.820;2023-08-06T02:12:52;16.10;99.90
7842;DHT22;3966;51.052;13.820;2023-08-06T02:15:17;16.10;99.90
7842;DHT22;3966;51.052;13.820;2023-08-06T02:17:43;16.10;99.90
7842;DHT22;3966;51.052;13.820;2023-08-06T02:20:09;16.10;99.90
7842;DHT22;3966;51.052;13.820;2023-08-06T02:22:34;16.10;99.90
7842;DHT22;3966;51.052;13.820;2023-08-06T02:25:00;16.20;99.90
7842;DHT22;3966;51.052;13.820;2023-08-06T02:27:26;16.20;99.90
7842;DHT22;3966;51.052;13.820;2023-08-06T02:29:51;16.20;99.90
7842;DHT22;3966;51.052;13.820;2023-08-06T02:32:17;16.10;99.90
7842;DHT22;3966;51.052;13.820;2023-08-06T02:34:43;16.20;99.90
7842;DHT22;3966;51.052;13.820;2023-08-06T02:37:08;16.10;99.90
7842;DHT22;3966;51.052;13.820;2023-08-06T02:39:34;16.20;99.90
7842;DHT22;3966;51.052;13.820;2023-08-06T02:42:01;16.20;99.90
7842;DHT22;3966;51.052;13.820;2023-08-06T02:44:27;16.20;99.90
7842;DHT22;3966;51.052;13.820;2023-08-06T02:46:53;16.10;99.90
7842;DHT22;3966;51.052;13.820;2023-08-06T02:49:19;16.10;99.90
7842;DHT22;3966;51.052;13.820;2023-08-06T02:51:47;16.10;99.90
7842;DHT22;3966;51.052;13.820;2023-08-06T02:54:13;16.00;99.90
7842;DHT22;3966;51.052;13.820;2023-08-06T02:56:39;16.10;99.90
7842;DHT22;3966;51.052;13.820;2023-08-06T02:59:08;16.00;99.90
7842;DHT22;3966;51.052;13.820;2023-08-06T03:01:33;16.10;99.90
7842;DHT22;3966;51.052;13.820;2023-08-06T03:03:59;16.10;99.90
7842;DHT22;3966;51.052;13.820;2023-08-06T03:06:25;16.10;99.90
7842;DHT22;3966;51.052;13.820;2023-08-06T03:08:50;16.10;99.90
7842;DHT22;3966;51.052;13.820;2023-08-06T03:11:16;16.00;99.90
7842;DHT22;3966;51.052;13.820;2023-08-06T03:13:41;16.10;99.90
7842;DHT22;3966;51.052;13.820;2023-08-06T03:16:07;16.10;99.90
7842;DHT22;3966;51.052;13.820;2023-08-06T03:18:33;16.10;99.90
7842;DHT22;3966;51.052;13.820;2023-08-06T03:20:58;16.10;99.90
7842;DHT22;3966;51.052;13.820;2023-08-06T03:23:24;16.00;99.90
7842;DHT22;3966;51.052;13.820;2023-08-06T03:25:50;16.00;99.90
7842;DHT22;3966;51.052;13.820;2023-08-06T03:28:15;16.00;99.90
7842;DHT22;3966;51.052;13.820;2023-08-06T03:30:42;15.90;99.90
7842;DHT22;3966;51.052;13.820;2023-08-06T03:33:07;15.90;99.90
7842;DHT22;3966;51.052;13.820;2023-08-06T03:35:33;15.90;99.90
7842;DHT22;3966;51.052;13.820;2023-08-06T03:37:58;16.00;99.90
7842;DHT22;3966;51.052;13.820;2023-08-06T03:40:24;15.90;99.90
7842;DHT22;3966;51.052;13.820;2023-08-06T03:42:50;15.80;99.90
7842;DHT22;3966;51.052;13.820;2023-08-06T03:45:15;15.80;99.90
7842;DHT22;3966;51.052;13.820;2023-08-06T03:47:41;15.90;99.90
7842;DHT22;3966;51.052;13.820;2023-08-06T03:50:07;15.90;99.90
7842;DHT22;3966;51.052;13.820;2023-08-06T03:52:33;15.90;99.90
7842;DHT22;3966;51.052;13.820;2023-08-06T03:54:58;15.90;99.90
7842;DHT22;3966;51.052;13.820;2023-08-06T03:57:24;15.90;99.90
7842;DHT22;3966;51.052;13.820;2023-08-06T03:59:50;15.90;99.90
7842;DHT22;3966;51.052;13.820;2023-08-06T04:02:15;15.90;99.90
7842;DHT22;3966;51.052;13.820;2023-08-06T04:04:41;16.00;99.90
7842;DHT22;3966;51.052;13.820;2023-08-06T04:07:06;15.90;99.90
7842;DHT22;3966;51.052;13.820;2023-08-06T04:09:32;15.90;99.90
7842;DHT22;3966;51.052;13.820;2023-08-06T04:11:58;15.90;99.90
7842;DHT22;3966;51.052;13.820;2023-08-06T04:14:25;15.90;99.90
7842;DHT22;3966;51.052;13.820;2023-08-06T04:16:51;15.90;99.90
7842;DHT22;3966;51.052;13.820;2023-08-06T04:19:17;15.90;99.90
7842;DHT22;3966;51.052;13.820;2023-08-06T04:21:42;15.90;99.90
7842;DHT22;3966;51.052;13.820;2023-08-06T04:24:08;15.90;99.90
7842;DHT22;3966;51.052;13.820;2023-08-06T04:26:33;15.90;99.90
7842;DHT22;3966;51.052;13.820;2023-08-06T04:28:59;15.90;99.90
7842;DHT22;3966;51.052;13.820;2023-08-06T04:31:25;15.90;99.90
7842;DHT22;3966;51.052;13.820;2023-08-06T04:33:50;15.90;99.90
7842;DHT22;3966;51.052;13.820;2023-08-06T04:36:16;15.90;99.90
7842;DHT22;3966;51.052;13.820;2023-08-06T04:38:41;15.90;99.90
7842;DHT22;3966;51.052;13.820;2023-08-06T04:41:10;15.90;99.90
7842;DHT22;3966;51.052;13.820;2023-08-06T04:43:37;15.90;99.90
7842;DHT22;3966;51.052;13.820;2023-08-06T04:46:02;16.00;99.90
7842;DHT22;3966;51.052;13.820;2023-08-06T04:48:28;16.00;99.90
7842;DHT22;3966;51.052;13.820;2023-08-06T04:50:53;16.00;99.90
7842;DHT22;3966;51.052;13.820;2023-08-06T04:53:20;16.00;99.90
7842;DHT22;3966;51.052;13.820;2023-08-06T04:55:45;16.00;99.90
7842;DHT22;3966;51.052;13.820;2023-08-06T04:58:12;16.00;99.90
7842;DHT22;3966;51.052;13.820;2023-08-06T05:00:38;16.10;99.90
7842;DHT22;3966;51.052;13.820;2023-08-06T05:03:05;16.10;99.90
7842;DHT22;3966;51.052;13.820;2023-08-06T05:05:30;16.10;99.90
7842;DHT22;3966;51.052;13.820;2023-08-06T05:07:57;16.00;99.90
7842;DHT22;3966;51.052;13.820;2023-08-06T05:10:25;16.00;99.90
7842;DHT22;3966;51.052;13.820;2023-08-06T05:12:52;16.00;99.90
7842;DHT22;3966;51.052;13.820;2023-08-06T05:15:19;16.00;99.90
7842;DHT22;3966;51.052;13.820;2023-08-06T05:17:44;15.90;99.90
7842;DHT22;3966;51.052;13.820;2023-08-06T05:20:10;15.90;99.90
7842;DHT22;3966;51.052;13.820;2023-08-06T05:22:36;15.90;99.90
7842;DHT22;3966;51.052;13.820;2023-08-06T05:25:02;15.90;99.90
7842;DHT22;3966;51.052;13.820;2023-08-06T05:27:28;15.90;99.90
7842;DHT22;3966;51.052;13.820;2023-08-06T05:29:55;15.90;99.90
7842;DHT22;3966;51.052;13.820;2023-08-06T05:32:22;15.90;99.90
7842;DHT22;3966;51.052;13.820;2023-08-06T05:34:47;16.00;99.90
7842;DHT22;3966;51.052;13.820;2023-08-06T05:37:13;16.10;99.90
7842;DHT22;3966;51.052;13.820;2023-08-06T05:39:38;16.10;99.90
7842;DHT22;3966;51.052;13.820;2023-08-06T05:42:05;16.10;99.90
7842;DHT22;3966;51.052;13.820;2023-08-06T05:44:30;16.10;99.90
7842;DHT22;3966;51.052;13.820;2023-08-06T05:46:56;16.10;99.90
7842;DHT22;3966;51.052;13.820;2023-08-06T05:49:22;16.10;99.90
7842;DHT22;3966;51.052;13.820;2023-08-06T05:51:47;16.00;99.90
7842;DHT22;3966;51.052;13.820;2023-08-06T05:54:14;16.10;99.90
7842;DHT22;3966;51.052;13.820;2023-08-06T05:56:39;16.10;99.90
7842;DHT22;3966;51.052;13.820;2023-08-06T05:59:05;16.10;99.90
7842;DHT22;3966;51.052;13.820;2023-08-06T06:01:30;16.00;99.90
7842;DHT22;3966;51.052;13.820;2023-08-06T06:03:56;16.10;99.90
7842;DHT22;3966;51.052;13.820;2023-08-06T06:06:22;16.20;99.90
7842;DHT22;3966;51.052;13.820;2023-08-06T06:08:47;16.10;99.90
7842;DHT22;3966;51.052;13.820;2023-08-06T06:11:13;16.20;99.90
7842;DHT22;3966;51.052;13.820;2023-08-06T06:13:38;16.30;99.90
7842;DHT22;3966;51.052;13.820;2023-08-06T06:16:04;16.30;99.90
7842;DHT22;3966;51.052;13.820;2023-08-06T06:18:30;16.30;99.90
7842;DHT22;3966;51.052;13.820;2023-08-06T06:20:56;16.30;99.90
7842;DHT22;3966;51.052;13.820;2023-08-06T06:23:22;16.30;99.90
7842;DHT22;3966;51.052;13.820;2023-08-06T06:25:49;16.30;99.90
7842;DHT22;3966;51.052;13.820;2023-08-06T06:28:17;16.40;99.90
7842;DHT22;3966;51.052;13.820;2023-08-06T06:30:43;16.30;99.90
7842;DHT22;3966;51.052;13.820;2023-08-06T06:33:08;16.30;99.90
7842;DHT22;3966;51.052;13.820;2023-08-06T06:35:34;16.30;99.90
7842;DHT22;3966;51.052;13.820;2023-08-06T06:37:59;16.30;99.90
7842;DHT22;3966;51.052;13.820;2023-08-06T06:40:25;16.40;99.90
7842;DHT22;3966;51.052;13.820;2023-08-06T06:42:51;16.40;99.90
7842;DHT22;3966;51.052;13.820;2023-08-06T06:45:17;16.30;99.90
7842;DHT22;3966;51.052;13.820;2023-08-06T06:47:42;16.30;99.90
7842;DHT22;3966;51.052;13.820;2023-08-06T06:50:08;16.30;99.90
7842;DHT22;3966;51.052;13.820;2023-08-06T06:52:34;16.30;99.90
7842;DHT22;3966;51.052;13.820;2023-08-06T06:55:00;16.40;99.90
7842;DHT22;3966;51.052;13.820;2023-08-06T06:57:26;16.50;99.90
7842;DHT22;3966;51.052;13.820;2023-08-06T06:59:51;16.50;99.90
7842;DHT22;3966;51.052;13.820;2023-08-06T07:02:17;16.60;99.90
7842;DHT22;3966;51.052;13.820;2023-08-06T07:04:43;16.60;99.90
7842;DHT22;3966;51.052;13.820;2023-08-06T07:07:08;16.70;99.90
7842;DHT22;3966;51.052;13.820;2023-08-06T07:09:34;16.60;99.90
7842;DHT22;3966;51.052;13.820;2023-08-06T07:12:00;16.60;99.90
7842;DHT22;3966;51.052;13.820;2023-08-06T07:14:28;16.60;99.90
7842;DHT22;3966;51.052;13.820;2023-08-06T07:16:53;16.60;99.90
7842;DHT22;3966;51.052;13.820;2023-08-06T07:19:19;16.60;99.90
7842;DHT22;3966;51.052;13.820;2023-08-06T07:21:45;16.70;99.90
7842;DHT22;3966;51.052;13.820;2023-08-06T07:24:10;16.70;99.90
7842;DHT22;3966;51.052;13.820;2023-08-06T07:26:37;16.80;99.90
7842;DHT22;3966;51.052;13.820;2023-08-06T07:29:03;16.80;99.90
7842;DHT22;3966;51.052;13.820;2023-08-06T07:31:28;16.90;99.90
7842;DHT22;3966;51.052;13.820;2023-08-06T07:33:54;16.90;99.90
7842;DHT22;3966;51.052;13.820;2023-08-06T07:36:20;16.90;99.90
7842;DHT22;3966;51.052;13.820;2023-08-06T07:38:45;16.90;99.90
7842;DHT22;3966;51.052;13.820;2023-08-06T07:41:11;16.80;99.90
7842;DHT22;3966;51.052;13.820;2023-08-06T07:43:37;16.80;99.90
7842;DHT22;3966;51.052;13.820;2023-08-06T07:46:03;16.80;99.90
7842;DHT22;3966;51.052;13.820;2023-08-06T07:48:29;16.80;99.90
7842;DHT22;3966;51.052;13.820;2023-08-06T07:50:55;16.80;99.90
7842;DHT22;3966;51.052;13.820;2023-08-06T07:53:22;16.90;99.90
7842;DHT22;3966;51.052;13.820;2023-08-06T07:55:51;16.70;99.90
7842;DHT22;3966;51.052;13.820;2023-08-06T07:58:18;16.90;99.90
7842;DHT22;3966;51.052;13.820;2023-08-06T08:00:43;16.90;99.90
7842;DHT22;3966;51.052;13.820;2023-08-06T08:03:12;16.80;99.90
7842;DHT22;3966;51.052;13.820;2023-08-06T08:05:38;16.90;99.90
7842;DHT22;3966;51.052;13.820;2023-08-06T08:08:04;17.00;99.90
7842;DHT22;3966;51.052;13.820;2023-08-06T08:10:31;16.90;99.90
7842;DHT22;3966;51.052;13.820;2023-08-06T08:12:57;16.70;99.90
7842;DHT22;3966;51.052;13.820;2023-08-06T08:15:22;16.70;99.90
7842;DHT22;3966;51.052;13.820;2023-08-06T08:17:48;16.70;99.90
7842;DHT22;3966;51.052;13.820;2023-08-06T08:20:20;16.70;99.90
7842;DHT22;3966;51.052;13.820;2023-08-06T08:22:49;16.70;99.90
7842;DHT22;3966;51.052;13.820;2023-08-06T08:25:21;16.70;99.90
7842;DHT22;3966;51.052;13.820;2023-08-06T08:27:46;16.60;99.90
7842;DHT22;3966;51.052;13.820;2023-08-06T08:30:13;16.60;99.90
7842;DHT22;3966;51.052;13.820;2023-08-06T08:32:38;16.50;99.90
7842;DHT22;3966;51.052;13.820;2023-08-06T08:35:04;16.60;99.90
7842;DHT22;3966;51.052;13.820;2023-08-06T08:37:30;16.70;99.90
7842;DHT22;3966;51.052;13.820;2023-08-06T08:39:55;16.90;99.90
7842;DHT22;3966;51.052;13.820;2023-08-06T08:42:22;16.90;99.90
7842;DHT22;3966;51.052;13.820;2023-08-06T08:44:47;16.90;99.90
7842;DHT22;3966;51.052;13.820;2023-08-06T08:47:14;16.80;99.90
7842;DHT22;3966;51.052;13.820;2023-08-06T08:49:42;16.70;99.90
7842;DHT22;3966;51.052;13.820;2023-08-06T08:52:10;16.70;99.90
7842;DHT22;3966;51.052;13.820;2023-08-06T08:54:38;16.60;99.90
7842;DHT22;3966;51.052;13.820;2023-08-06T08:57:05;16.60;99.90
7842;DHT22;3966;51.052;13.820;2023-08-06T08:59:35;16.50;99.90
7842;DHT22;3966;51.052;13.820;2023-08-06T09:02:01;16.60;99.90
7842;DHT22;3966;51.052;13.820;2023-08-06T09:04:29;16.80;99.90
7842;DHT22;3966;51.052;13.820;2023-08-06T09:06:58;16.80;99.90
7842;DHT22;3966;51.052;13.820;2023-08-06T09:09:34;17.00;99.90
7842;DHT22;3966;51.052;13.820;2023-08-06T09:12:11;16.90;99.90
7842;DHT22;3966;51.052;13.820;2023-08-06T09:14:37;17.00;99.90
7842;DHT22;3966;51.052;13.820;2023-08-06T09:17:04;17.00;99.90
7842;DHT22;3966;51.052;13.820;2023-08-06T09:19:31;17.00;99.90
7842;DHT22;3966;51.052;13.820;2023-08-06T09:21:57;16.90;99.90
7842;DHT22;3966;51.052;13.820;2023-08-06T09:24:23;16.90;99.90
7842;DHT22;3966;51.052;13.820;2023-08-06T09:26:49;16.80;99.90
7842;DHT22;3966;51.052;13.820;2023-08-06T09:29:14;16.80;99.90
7842;DHT22;3966;51.052;13.820;2023-08-06T09:31:42;16.70;99.90
7842;DHT22;3966;51.052;13.820;2023-08-06T09:34:19;16.60;99.90
7842;DHT22;3966;51.052;13.820;2023-08-06T09:36:50;16.60;99.90
7842;DHT22;3966;51.052;13.820;2023-08-06T09:39:27;16.70;99.90
7842;DHT22;3966;51.052;13.820;2023-08-06T09:41:58;16.80;99.90
7842;DHT22;3966;51.052;13.820;2023-08-06T09:44:26;16.70;99.90
7842;DHT22;3966;51.052;13.820;2023-08-06T09:46:56;16.80;99.90
7842;DHT22;3966;51.052;13.820;2023-08-06T09:49:39;17.00;99.90
7842;DHT22;3966;51.052;13.820;2023-08-06T09:52:12;16.90;99.90
7842;DHT22;3966;51.052;13.820;2023-08-06T09:54:38;16.90;99.90
7842;DHT22;3966;51.052;13.820;2023-08-06T09:57:05;17.00;99.90
7842;DHT22;3966;51.052;13.820;2023-08-06T09:59:32;17.00;99.90
7842;DHT22;3966;51.052;13.820;2023-08-06T10:01:58;17.10;99.90
7842;DHT22;3966;51.052;13.820;2023-08-06T10:04:25;17.00;99.90
7842;DHT22;3966;51.052;13.820;2023-08-06T10:06:51;17.10;99.90
7842;DHT22;3966;51.052;13.820;2023-08-06T10:09:17;17.00;99.90
7842;DHT22;3966;51.052;13.820;2023-08-06T10:11:44;17.00;99.90
7842;DHT22;3966;51.052;13.820;2023-08-06T10:16:47;17.30;99.90
7842;DHT22;3966;51.052;13.820;2023-08-06T10:19:13;17.50;99.90
7842;DHT22;3966;51.052;13.820;2023-08-06T10:21:40;17.30;99.90
7842;DHT22;3966;51.052;13.820;2023-08-06T10:24:09;17.30;99.90
7842;DHT22;3966;51.052;13.820;2023-08-06T10:26:40;17.40;99.90
7842;DHT22;3966;51.052;13.820;2023-08-06T10:29:36;17.50;99.90
7842;DHT22;3966;51.052;13.820;2023-08-06T10:32:05;17.30;99.90
7842;DHT22;3966;51.052;13.820;2023-08-06T10:34:52;17.30;99.90
7842;DHT22;3966;51.052;13.820;2023-08-06T10:37:19;17.40;99.90
7842;DHT22;3966;51.052;13.820;2023-08-06T10:39:51;17.40;99.90
7842;DHT22;3966;51.052;13.820;2023-08-06T10:42:28;17.60;99.90
7842;DHT22;3966;51.052;13.820;2023-08-06T10:45:23;17.60;99.90
7842;DHT22;3966;51.052;13.820;2023-08-06T10:47:53;17.50;99.90
7842;DHT22;3966;51.052;13.820;2023-08-06T10:50:20;17.50;99.90
7842;DHT22;3966;51.052;13.820;2023-08-06T10:52:46;17.60;99.90
7842;DHT22;3966;51.052;13.820;2023-08-06T10:55:30;17.40;99.90
7842;DHT22;3966;51.052;13.820;2023-08-06T10:57:57;17.50;99.90
7842;DHT22;3966;51.052;13.820;2023-08-06T11:00:23;17.70;99.90
7842;DHT22;3966;51.052;13.820;2023-08-06T11:02:51;17.80;99.90
7842;DHT22;3966;51.052;13.820;2023-08-06T11:05:16;17.90;99.90
7842;DHT22;3966;51.052;13.820;2023-08-06T11:07:43;17.90;99.90
7842;DHT22;3966;51.052;13.820;2023-08-06T11:10:11;17.90;99.90
7842;DHT22;3966;51.052;13.820;2023-08-06T11:12:37;17.90;99.90
7842;DHT22;3966;51.052;13.820;2023-08-06T11:15:03;18.10;99.90
7842;DHT22;3966;51.052;13.820;2023-08-06T11:17:31;18.20;99.90
7842;DHT22;3966;51.052;13.820;2023-08-06T11:19:59;18.20;99.90
7842;DHT22;3966;51.052;13.820;2023-08-06T11:22:26;18.30;99.90
7842;DHT22;3966;51.052;13.820;2023-08-06T11:24:53;18.30;99.90
7842;DHT22;3966;51.052;13.820;2023-08-06T11:27:19;18.30;99.90
7842;DHT22;3966;51.052;13.820;2023-08-06T11:29:44;18.30;99.90
7842;DHT22;3966;51.052;13.820;2023-08-06T11:32:11;18.30;99.90
7842;DHT22;3966;51.052;13.820;2023-08-06T11:34:40;18.40;99.90
7842;DHT22;3966;51.052;13.820;2023-08-06T11:37:07;18.40;99.90
7842;DHT22;3966;51.052;13.820;2023-08-06T11:39:33;18.40;99.90
7842;DHT22;3966;51.052;13.820;2023-08-06T11:41:59;18.40;99.90
7842;DHT22;3966;51.052;13.820;2023-08-06T11:44:34;18.30;99.90
7842;DHT22;3966;51.052;13.820;2023-08-06T11:47:01;18.30;99.90
7842;DHT22;3966;51.052;13.820;2023-08-06T11:52:19;18.40;99.90
7842;DHT22;3966;51.052;13.820;2023-08-06T11:55:01;18.50;99.90
7842;DHT22;3966;51.052;13.820;2023-08-06T11:57:33;18.30;99.90
7842;DHT22;3966;51.052;13.820;2023-08-06T12:00:08;18.30;99.90
7842;DHT22;3966;51.052;13.820;2023-08-06T12:02:34;18.30;99.90
7842;DHT22;3966;51.052;13.820;2023-08-06T12:05:13;18.30;99.90
7842;DHT22;3966;51.052;13.820;2023-08-06T12:07:49;18.40;99.90
7842;DHT22;3966;51.052;13.820;2023-08-06T12:10:16;18.40;99.90
7842;DHT22;3966;51.052;13.820;2023-08-06T12:12:42;18.60;99.90
7842;DHT22;3966;51.052;13.820;2023-08-06T12:15:09;18.70;99.90
7842;DHT22;3966;51.052;13.820;2023-08-06T12:17:35;18.70;99.90
7842;DHT22;3966;51.052;13.820;2023-08-06T12:20:03;18.70;99.90
7842;DHT22;3966;51.052;13.820;2023-08-06T12:22:30;18.90;99.90
7842;DHT22;3966;51.052;13.820;2023-08-06T12:25:02;18.90;99.90
7842;DHT22;3966;51.052;13.820;2023-08-06T12:27:40;18.80;99.90
7842;DHT22;3966;51.052;13.820;2023-08-06T12:30:07;18.80;99.90
7842;DHT22;3966;51.052;13.820;2023-08-06T12:32:33;18.70;99.90
7842;DHT22;3966;51.052;13.820;2023-08-06T12:34:59;18.60;99.90
7842;DHT22;3966;51.052;13.820;2023-08-06T12:37:26;18.70;99.90
7842;DHT22;3966;51.052;13.820;2023-08-06T12:39:52;18.80;99.90
7842;DHT22;3966;51.052;13.820;2023-08-06T12:42:18;18.90;99.90
7842;DHT22;3966;51.052;13.820;2023-08-06T12:44:44;18.70;99.90
7842;DHT22;3966;51.052;13.820;2023-08-06T12:47:09;18.80;99.90
7842;DHT22;3966;51.052;13.820;2023-08-06T12:49:35;18.90;99.90
7842;DHT22;3966;51.052;13.820;2023-08-06T12:52:01;18.90;99.90
7842;DHT22;3966;51.052;13.820;2023-08-06T12:54:28;19.10;99.90
7842;DHT22;3966;51.052;13.820;2023-08-06T12:56:54;19.20;99.90
7842;DHT22;3966;51.052;13.820;2023-08-06T12:59:20;18.90;99.90
7842;DHT22;3966;51.052;13.820;2023-08-06T13:01:46;18.70;99.90
7842;DHT22;3966;51.052;13.820;2023-08-06T13:04:11;18.60;99.90
7842;DHT22;3966;51.052;13.820;2023-08-06T13:06:38;18.70;99.90
7842;DHT22;3966;51.052;13.820;2023-08-06T13:09:06;18.70;99.90
7842;DHT22;3966;51.052;13.820;2023-08-06T13:11:32;18.90;99.90
7842;DHT22;3966;51.052;13.820;2023-08-06T13:14:06;18.90;99.90
7842;DHT22;3966;51.052;13.820;2023-08-06T13:16:33;18.70;99.90
7842;DHT22;3966;51.052;13.820;2023-08-06T13:18:59;18.60;99.90
7842;DHT22;3966;51.052;13.820;2023-08-06T13:21:34;18.70;99.90
7842;DHT22;3966;51.052;13.820;2023-08-06T13:24:03;18.90;99.90
7842;DHT22;3966;51.052;13.820;2023-08-06T13:38:57;18.90;99.90
7842;DHT22;3966;51.052;13.820;2023-08-06T13:41:23;19.50;99.90
7842;DHT22;3966;51.052;13.820;2023-08-06T13:43:49;19.60;99.90
7842;DHT22;3966;51.052;13.820;2023-08-06T13:46:15;19.70;99.90
7842;DHT22;3966;51.052;13.820;2023-08-06T13:48:46;19.70;99.90
7842;DHT22;3966;51.052;13.820;2023-08-06T13:51:13;19.50;99.90
7842;DHT22;3966;51.052;13.820;2023-08-06T13:53:41;19.50;99.90
7842;DHT22;3966;51.052;13.820;2023-08-06T13:56:09;19.60;99.90
7842;DHT22;3966;51.052;13.820;2023-08-06T13:58:38;19.70;99.90
7842;DHT22;3966;51.052;13.820;2023-08-06T14:01:04;19.70;99.90
7842;DHT22;3966;51.052;13.820;2023-08-06T14:03:30;19.70;99.90
7842;DHT22;3966;51.052;13.820;2023-08-06T14:05:55;19.70;99.90
7842;DHT22;3966;51.052;13.820;2023-08-06T14:08:22;19.60;99.90
7842;DHT22;3966;51.052;13.820;2023-08-06T14:10:49;19.60;99.90
7842;DHT22;3966;51.052;13.820;2023-08-06T14:13:14;19.60;99.90
7842;DHT22;3966;51.052;13.820;2023-08-06T14:15:40;19.60;99.90
7842;DHT22;3966;51.052;13.820;2023-08-06T14:18:07;19.70;99.90
7842;DHT22;3966;51.052;13.820;2023-08-06T14:20:36;19.70;99.90
7842;DHT22;3966;51.052;13.820;2023-08-06T14:23:02;19.70;99.90
7842;DHT22;3966;51.052;13.820;2023-08-06T14:25:28;19.70;99.90
7842;DHT22;3966;51.052;13.820;2023-08-06T14:27:54;19.70;99.90
7842;DHT22;3966;51.052;13.820;2023-08-06T14:30:20;19.80;99.90
7842;DHT22;3966;51.052;13.820;2023-08-06T14:32:46;19.80;99.90
7842;DHT22;3966;51.052;13.820;2023-08-06T14:35:12;19.90;99.90
7842;DHT22;3966;51.052;13.820;2023-08-06T14:37:39;19.90;99.90
7842;DHT22;3966;51.052;13.820;2023-08-06T14:40:06;19.90;99.90
7842;DHT22;3966;51.052;13.820;2023-08-06T14:42:32;19.90;99.90
7842;DHT22;3966;51.052;13.820;2023-08-06T14:44:58;19.90;99.90
7842;DHT22;3966;51.052;13.820;2023-08-06T14:47:27;19.90;99.90
7842;DHT22;3966;51.052;13.820;2023-08-06T14:49:53;19.90;99.90
7842;DHT22;3966;51.052;13.820;2023-08-06T14:52:19;19.90;99.90
7842;DHT22;3966;51.052;13.820;2023-08-06T14:54:47;19.90;99.90
7842;DHT22;3966;51.052;13.820;2023-08-06T14:57:20;19.90;99.90
7842;DHT22;3966;51.052;13.820;2023-08-06T15:00:02;20.00;99.90
7842;DHT22;3966;51.052;13.820;2023-08-06T15:02:38;20.20;99.90
7842;DHT22;3966;51.052;13.820;2023-08-06T15:05:13;20.10;99.90
7842;DHT22;3966;51.052;13.820;2023-08-06T15:07:42;20.00;99.90
7842;DHT22;3966;51.052;13.820;2023-08-06T15:10:17;20.10;99.90
7842;DHT22;3966;51.052;13.820;2023-08-06T15:12:45;20.20;99.90
7842;DHT22;3966;51.052;13.820;2023-08-06T15:15:17;20.20;99.90
7842;DHT22;3966;51.052;13.820;2023-08-06T15:17:50;20.30;99.90
7842;DHT22;3966;51.052;13.820;2023-08-06T15:20:28;20.20;99.90
7842;DHT22;3966;51.052;13.820;2023-08-06T15:22:54;20.10;99.90
7842;DHT22;3966;51.052;13.820;2023-08-06T15:25:22;20.00;99.90
7842;DHT22;3966;51.052;13.820;2023-08-06T15:27:48;19.90;99.90
7842;DHT22;3966;51.052;13.820;2023-08-06T15:30:14;19.80;99.90
7842;DHT22;3966;51.052;13.820;2023-08-06T15:32:39;19.80;99.90
7842;DHT22;3966;51.052;13.820;2023-08-06T15:35:10;19.80;99.90
7842;DHT22;3966;51.052;13.820;2023-08-06T15:37:42;19.90;99.90
7842;DHT22;3966;51.052;13.820;2023-08-06T15:40:10;19.90;99.90
7842;DHT22;3966;51.052;13.820;2023-08-06T15:42:35;19.90;99.90
7842;DHT22;3966;51.052;13.820;2023-08-06T15:45:01;19.80;99.90
7842;DHT22;3966;51.052;13.820;2023-08-06T15:47:28;19.80;99.90
7842;DHT22;3966;51.052;13.820;2023-08-06T15:49:54;19.60;99.90
7842;DHT22;3966;51.052;13.820;2023-08-06T15:52:20;19.50;99.90
7842;DHT22;3966;51.052;13.820;2023-08-06T15:54:45;19.40;99.90
7842;DHT22;3966;51.052;13.820;2023-08-06T15:57:11;19.40;99.90
7842;DHT22;3966;51.052;13.820;2023-08-06T15:59:37;19.40;99.90
7842;DHT22;3966;51.052;13.820;2023-08-06T16:02:03;19.40;99.90
7842;DHT22;3966;51.052;13.820;2023-08-06T16:04:31;19.30;99.90
7842;DHT22;3966;51.052;13.820;2023-08-06T16:06:58;19.10;99.90
7842;DHT22;3966;51.052;13.820;2023-08-06T16:09:24;19.10;99.90
7842;DHT22;3966;51.052;13.820;2023-08-06T16:11:51;19.10;99.90